Terminal Aerodrome Forecast
Issued by NWS Quad Cities IA IL

Home | Current Version | Previous Version | Text Only | Print | Product List | Glossary On
Versions: 1 2 3 4 5 6 7 8 9 10 11 12 13 14 15 16 17 18 19 20 21 22 23 24
844
FTUS43 KDVN 270520
TAFMLI
TAF
KMLI 270520Z 2706/2806 VRB03KT 5SM BR BKN012
     FM270800 VRB02KT 2SM BR FEW003 BKN008
      TEMPO 2709/2713 1SM BR BKN003
     FM271400 11006KT 6SM BR SCT040
     FM272300 12007KT P6SM VCTS BKN050CB
     FM280300 06012KT 6SM BR BKN030=

USA.gov is the U.S. government's official web portal to all federal, state and local government web resources and services.